Time;durP1;ratioP1;P1;durP2;ratioP2;P2;SDS_P1;SDS_P2;PMS_P1;PMS_P2;Temp;Humidity;BMP_temperature;BMP_pressure;BME280_temperature;BME280_humidity;BME280_pressure;Samples;Min_cycle;Max_cycle;Signal;HPM_P1;HPM_P2
2023/10/25 00:02:10;;;;;;;14.30;6.45;;;8.30;99.90;;;;;;5023803;28;20033;-78
2023/10/25 00:04:36;;;;;;;14.05;6.03;;;8.30;99.90;;;;;;5031811;28;20041;-78
2023/10/25 00:07:01;;;;;;;17.25;6.55;;;8.30;99.90;;;;;;5043373;28;20068;-79
2023/10/25 00:09:27;;;;;;;13.05;6.05;;;8.30;99.90;;;;;;5056865;28;20131;-78
2023/10/25 00:11:54;;;;;;;13.88;6.72;;;8.30;99.90;;;;;;5044917;28;20053;-78
2023/10/25 00:14:20;;;;;;;15.38;6.30;;;8.30;99.90;;;;;;5028328;28;21523;-78
2023/10/25 00:16:45;;;;;;;17.45;6.68;;;8.30;99.90;;;;;;5046084;28;20044;-78
2023/10/25 00:19:11;;;;;;;13.73;6.03;;;8.30;99.90;;;;;;5033002;28;20119;-78
2023/10/25 00:21:37;;;;;;;11.52;5.85;;;8.20;99.90;;;;;;5032316;28;20483;-78
2023/10/25 00:24:03;;;;;;;12.93;6.40;;;8.30;99.90;;;;;;5025171;28;20520;-78
2023/10/25 00:26:28;;;;;;;10.93;5.40;;;8.20;99.90;;;;;;5048405;28;20048;-78
2023/10/25 00:28:54;;;;;;;14.88;5.82;;;8.20;99.90;;;;;;5039605;28;20495;-77
2023/10/25 00:31:20;;;;;;;13.38;5.45;;;8.20;99.90;;;;;;5022388;28;20137;-77
2023/10/25 00:33:45;;;;;;;9.77;5.75;;;8.20;99.90;;;;;;5040332;28;20045;-77
2023/10/25 00:36:11;;;;;;;13.77;5.72;;;8.20;99.90;;;;;;5027953;28;20052;-77
2023/10/25 00:38:36;;;;;;;9.18;5.30;;;8.20;99.90;;;;;;5018676;28;20045;-77
2023/10/25 00:41:02;;;;;;;12.80;5.78;;;8.20;99.90;;;;;;5020619;28;20059;-78
2023/10/25 00:43:28;;;;;;;11.32;5.25;;;8.10;99.90;;;;;;5031545;28;20407;-77
2023/10/25 00:45:57;;;;;;;10.95;4.90;;;8.10;99.90;;;;;;5023000;28;20044;-77
2023/10/25 00:48:23;;;;;;;11.82;5.70;;;8.10;99.90;;;;;;5028651;28;20029;-77
2023/10/25 00:50:49;;;;;;;13.73;5.40;;;8.10;99.90;;;;;;5032281;28;20040;-77
2023/10/25 00:53:15;;;;;;;9.80;4.65;;;8.10;99.90;;;;;;5022945;28;20044;-77
2023/10/25 00:55:41;;;;;;;7.80;4.90;;;8.00;99.90;;;;;;5035015;28;20522;-77
2023/10/25 00:58:06;;;;;;;10.57;4.88;;;8.00;99.90;;;;;;5015252;28;20210;-77
2023/10/25 01:00:33;;;;;;;13.77;4.60;;;7.90;99.90;;;;;;5031508;28;20116;-77
2023/10/25 01:03:02;;;;;;;9.02;4.90;;;7.90;99.90;;;;;;5026752;28;20037;-77
2023/10/25 01:05:28;;;;;;;12.18;4.55;;;7.90;99.90;;;;;;5023756;28;20403;-77
2023/10/25 01:07:53;;;;;;;12.20;5.22;;;7.80;99.90;;;;;;5039730;28;20048;-78
2023/10/25 01:10:19;;;;;;;13.95;5.40;;;7.80;99.90;;;;;;5021942;28;20037;-77
2023/10/25 01:12:45;;;;;;;11.98;4.97;;;7.90;99.90;;;;;;5036589;28;20087;-77
2023/10/25 01:15:12;;;;;;;9.00;5.03;;;7.80;99.90;;;;;;5039243;28;20049;-78
2023/10/25 01:17:38;;;;;;;10.00;5.20;;;7.80;99.90;;;;;;5023583;28;20041;-77
2023/10/25 01:20:04;;;;;;;11.35;4.85;;;7.80;99.90;;;;;;5040639;28;20098;-77
2023/10/25 01:22:29;;;;;;;12.02;5.47;;;7.80;99.90;;;;;;5036604;28;20036;-77
2023/10/25 01:24:55;;;;;;;10.98;5.43;;;7.80;99.90;;;;;;5046825;28;20125;-78
2023/10/25 01:27:21;;;;;;;12.25;5.05;;;7.80;99.90;;;;;;5043771;28;20048;-77
2023/10/25 01:29:47;;;;;;;12.30;5.47;;;7.80;99.90;;;;;;5031523;28;20044;-78
2023/10/25 01:32:12;;;;;;;11.82;5.70;;;7.80;99.90;;;;;;5047195;28;20351;-77
2023/10/25 01:34:38;;;;;;;12.00;5.68;;;7.80;99.90;;;;;;5020490;28;20046;-77
2023/10/25 01:37:04;;;;;;;13.05;5.25;;;7.80;99.90;;;;;;5043093;28;20041;-78
2023/10/25 01:39:29;;;;;;;13.30;6.53;;;7.80;99.90;;;;;;5042949;28;20095;-77
2023/10/25 01:41:55;;;;;;;13.38;4.95;;;7.80;99.90;;;;;;5020635;28;20444;-77
2023/10/25 01:44:21;;;;;;;8.52;5.18;;;7.80;99.90;;;;;;5023445;28;20068;-77
2023/10/25 01:46:46;;;;;;;11.63;5.47;;;7.70;99.90;;;;;;5038980;28;20047;-77
2023/10/25 01:49:12;;;;;;;13.63;5.55;;;7.70;99.90;;;;;;5046049;28;20129;-78
2023/10/25 01:51:38;;;;;;;14.30;5.40;;;7.70;99.90;;;;;;5023577;28;20487;-78
2023/10/25 01:54:03;;;;;;;13.77;5.93;;;7.70;99.90;;;;;;5053808;28;20547;-77
2023/10/25 01:56:29;;;;;;;13.48;5.63;;;7.70;99.90;;;;;;5038611;28;20052;-77
2023/10/25 01:58:55;;;;;;;10.80;5.18;;;7.70;99.90;;;;;;5024892;28;20119;-77
2023/10/25 02:01:20;;;;;;;14.60;5.97;;;7.60;99.90;;;;;;5040627;28;20040;-77
2023/10/25 02:03:46;;;;;;;13.25;6.32;;;7.60;99.90;;;;;;5041735;28;20052;-77
2023/10/25 02:06:15;;;;;;;14.60;4.85;;;7.60;99.90;;;;;;5036227;28;20037;-78
2023/10/25 02:08:41;;;;;;;15.73;6.15;;;7.60;99.90;;;;;;5038305;28;20040;-77
2023/10/25 02:11:08;;;;;;;16.92;5.88;;;7.60;99.90;;;;;;5038957;28;20049;-78
2023/10/25 02:13:33;;;;;;;12.52;5.57;;;7.60;99.90;;;;;;5038943;28;20526;-77
2023/10/25 02:16:09;;;;;;;13.93;6.03;;;7.60;99.90;;;;;;5038328;28;20045;-77
2023/10/25 02:18:35;;;;;;;11.23;5.85;;;7.60;99.90;;;;;;5032160;28;20083;-77
2023/10/25 02:21:00;;;;;;;13.45;5.65;;;7.60;99.90;;;;;;5027680;28;20033;-78
2023/10/25 02:23:26;;;;;;;13.50;6.40;;;7.60;99.90;;;;;;5027105;28;20108;-77
2023/10/25 02:25:52;;;;;;;11.30;5.97;;;7.60;99.90;;;;;;5043640;28;20029;-78
2023/10/25 02:28:17;;;;;;;12.38;6.32;;;7.60;99.90;;;;;;5026732;28;20032;-77
2023/10/25 02:30:43;;;;;;;14.32;6.40;;;7.60;99.90;;;;;;5024471;28;20517;-78
2023/10/25 02:33:09;;;;;;;19.92;6.95;;;7.50;99.90;;;;;;5031561;28;20056;-77
2023/10/25 02:35:34;;;;;;;14.00;6.53;;;7.50;99.90;;;;;;5034150;28;20045;-77
2023/10/25 02:38:00;;;;;;;13.60;6.97;;;7.50;99.90;;;;;;5020999;28;20045;-77
2023/10/25 02:40:26;;;;;;;14.10;7.03;;;7.50;99.90;;;;;;5042103;28;20041;-77
2023/10/25 02:42:51;;;;;;;14.98;6.93;;;7.50;99.90;;;;;;5028235;28;20042;-77
2023/10/25 02:45:17;;;;;;;13.50;6.65;;;7.50;99.90;;;;;;5045789;28;20071;-77
2023/10/25 02:47:42;;;;;;;15.77;6.63;;;7.50;99.90;;;;;;5020593;28;20040;-77
2023/10/25 02:50:09;;;;;;;17.27;7.03;;;7.50;99.90;;;;;;5012362;28;20040;-77
2023/10/25 02:52:34;;;;;;;15.55;7.47;;;7.50;99.90;;;;;;5019315;28;20510;-77
2023/10/25 02:55:00;;;;;;;15.35;7.38;;;7.50;99.90;;;;;;5056557;28;20041;-77
2023/10/25 02:57:26;;;;;;;12.82;7.35;;;7.40;99.90;;;;;;5037381;28;20043;-77
2023/10/25 02:59:52;;;;;;;21.10;7.78;;;7.50;99.90;;;;;;5040739;28;20563;-77
2023/10/25 03:02:18;;;;;;;15.10;7.47;;;7.40;99.90;;;;;;5041781;28;20071;-78
2023/10/25 03:04:43;;;;;;;16.67;7.78;;;7.40;99.90;;;;;;5041725;28;20550;-77
2023/10/25 03:07:09;;;;;;;19.27;8.25;;;7.50;99.90;;;;;;5019346;28;20045;-77
2023/10/25 03:09:35;;;;;;;15.25;7.53;;;7.40;99.90;;;;;;5018506;28;20037;-77
2023/10/25 03:12:00;;;;;;;13.20;7.70;;;7.40;99.90;;;;;;5040334;28;20037;-78
2023/10/25 03:14:26;;;;;;;15.70;7.50;;;7.40;99.90;;;;;;5024702;28;20045;-77
2023/10/25 03:16:52;;;;;;;21.25;8.75;;;7.30;99.90;;;;;;5042247;28;20040;-77
2023/10/25 03:19:18;;;;;;;19.52;7.55;;;7.40;99.90;;;;;;5029687;28;20152;-77
2023/10/25 03:21:43;;;;;;;16.58;7.95;;;7.40;99.90;;;;;;5032223;28;20116;-77
2023/10/25 03:24:09;;;;;;;16.05;7.90;;;7.40;99.90;;;;;;5022243;28;20038;-77
2023/10/25 03:26:34;;;;;;;15.02;6.93;;;7.40;99.90;;;;;;5023736;28;20033;-77
2023/10/25 03:29:00;;;;;;;13.18;7.75;;;7.30;99.90;;;;;;5024552;28;20041;-77
2023/10/25 03:31:26;;;;;;;12.55;6.53;;;7.30;99.90;;;;;;5021384;28;20519;-78
2023/10/25 03:33:51;;;;;;;16.38;7.85;;;7.30;99.90;;;;;;5025665;28;20673;-78
2023/10/25 03:36:17;;;;;;;14.52;7.35;;;7.30;99.90;;;;;;5045175;28;20112;-78
2023/10/25 03:38:43;;;;;;;15.00;7.43;;;7.30;99.90;;;;;;5028259;28;20116;-77
2023/10/25 03:41:08;;;;;;;12.13;6.65;;;7.30;99.90;;;;;;5013735;28;20041;-78
2023/10/25 03:43:35;;;;;;;14.57;7.03;;;7.20;99.90;;;;;;5040555;28;20440;-77
2023/10/25 03:46:06;;;;;;;17.25;7.13;;;7.20;99.90;;;;;;5038761;28;20039;-78
2023/10/25 03:48:36;;;;;;;15.45;7.13;;;7.30;99.90;;;;;;5043099;28;20045;-77
2023/10/25 03:51:06;;;;;;;13.80;6.68;;;7.30;99.90;;;;;;5029041;28;20453;-78
2023/10/25 03:53:39;;;;;;;15.18;6.75;;;7.30;99.90;;;;;;5039838;28;20400;-78
2023/10/25 03:56:05;;;;;;;17.98;6.53;;;7.30;99.90;;;;;;5043013;28;20065;-78
2023/10/25 03:58:31;;;;;;;14.68;7.43;;;7.20;99.90;;;;;;5026312;28;20128;-77
2023/10/25 04:01:06;;;;;;;15.85;6.78;;;7.30;99.90;;;;;;5040357;28;20033;-78
2023/10/25 04:03:32;;;;;;;12.70;6.18;;;7.30;99.90;;;;;;5025353;28;20045;-77
2023/10/25 04:05:58;;;;;;;15.32;6.65;;;7.30;99.90;;;;;;5039502;28;20037;-78
2023/10/25 04:08:24;;;;;;;13.25;6.70;;;7.30;99.90;;;;;;5051999;28;20141;-78
2023/10/25 04:10:55;;;;;;;16.73;7.05;;;7.20;99.90;;;;;;5013026;28;20064;-78
2023/10/25 04:13:21;;;;;;;14.32;7.22;;;7.30;99.90;;;;;;5011265;28;20623;-78
2023/10/25 04:16:00;;;;;;;15.85;6.82;;;7.20;99.90;;;;;;5020686;28;21645;-78
2023/10/25 04:18:27;;;;;;;13.75;6.78;;;7.20;99.90;;;;;;5020536;28;20435;-77
2023/10/25 04:20:54;;;;;;;14.40;7.35;;;7.20;99.90;;;;;;5023051;28;20369;-77
2023/10/25 04:23:20;;;;;;;12.65;6.60;;;7.10;99.90;;;;;;5018753;28;20044;-78
2023/10/25 04:25:46;;;;;;;15.45;6.63;;;7.10;99.90;;;;;;5022527;28;20423;-78
2023/10/25 04:28:13;;;;;;;12.23;6.47;;;7.10;99.90;;;;;;5033998;28;20037;-78
2023/10/25 04:30:38;;;;;;;12.00;6.45;;;7.20;99.90;;;;;;5022237;28;20069;-78
2023/10/25 04:33:04;;;;;;;13.85;6.32;;;7.10;99.90;;;;;;5032737;28;20064;-78
2023/10/25 04:35:30;;;;;;;15.50;7.55;;;7.20;99.90;;;;;;5031976;28;20041;-78
2023/10/25 04:37:55;;;;;;;19.90;6.82;;;7.10;99.90;;;;;;5043590;28;20051;-78
2023/10/25 04:40:24;;;;;;;17.27;7.43;;;7.10;99.90;;;;;;5012476;28;20116;-78
2023/10/25 04:42:50;;;;;;;16.67;7.20;;;7.10;99.90;;;;;;5022219;28;20087;-78
2023/10/25 04:45:20;;;;;;;17.33;6.80;;;7.10;99.90;;;;;;5044839;28;20076;-78
2023/10/25 04:47:45;;;;;;;12.95;7.13;;;7.10;99.90;;;;;;5029643;28;20128;-78
2023/10/25 04:50:11;;;;;;;12.80;6.78;;;7.10;99.90;;;;;;5029644;28;20125;-78
2023/10/25 04:52:37;;;;;;;17.48;6.50;;;7.10;99.90;;;;;;5016442;28;20087;-79
2023/10/25 04:55:03;;;;;;;13.90;6.35;;;7.10;99.90;;;;;;5046435;28;20033;-78
2023/10/25 04:57:29;;;;;;;16.50;6.30;;;7.00;99.90;;;;;;5025379;28;20064;-78
2023/10/25 04:59:55;;;;;;;16.98;6.72;;;7.00;99.90;;;;;;5017296;28;20045;-78
2023/10/25 05:02:20;;;;;;;13.05;6.47;;;7.00;99.90;;;;;;5018558;28;20045;-78
2023/10/25 05:04:47;;;;;;;17.75;6.88;;;7.00;99.90;;;;;;5040402;28;20037;-78
2023/10/25 05:07:13;;;;;;;12.65;6.47;;;6.90;99.90;;;;;;5021612;28;20040;-78
2023/10/25 05:09:39;;;;;;;17.25;6.68;;;6.90;99.90;;;;;;5059118;28;20059;-79
2023/10/25 05:12:07;;;;;;;15.93;6.43;;;6.90;99.90;;;;;;5026180;28;20033;-78
2023/10/25 05:14:34;;;;;;;14.18;7.15;;;6.90;99.90;;;;;;5024100;28;20045;-78
2023/10/25 05:17:01;;;;;;;12.77;7.10;;;6.90;99.90;;;;;;5035365;28;20052;-78
2023/10/25 05:19:27;;;;;;;15.15;6.15;;;6.90;99.90;;;;;;5027262;28;20040;-78
2023/10/25 05:21:55;;;;;;;16.95;6.93;;;6.80;99.90;;;;;;5041345;28;20036;-78
2023/10/25 05:24:21;;;;;;;10.77;6.28;;;6.80;99.90;;;;;;5039027;28;20055;-78
2023/10/25 05:26:47;;;;;;;9.60;5.95;;;6.80;99.90;;;;;;5029511;28;20037;-78
2023/10/25 05:29:13;;;;;;;12.93;6.57;;;6.70;99.90;;;;;;5044863;28;20048;-78
2023/10/25 05:31:45;;;;;;;14.77;6.72;;;6.70;99.90;;;;;;5028850;28;20029;-78
2023/10/25 05:34:11;;;;;;;13.50;6.78;;;6.80;99.90;;;;;;5045850;28;20398;-78
2023/10/25 05:36:38;;;;;;;19.25;6.68;;;6.70;99.90;;;;;;5035111;28;20448;-78
2023/10/25 05:39:05;;;;;;;19.45;7.22;;;6.70;99.90;;;;;;5035214;28;20068;-78
2023/10/25 05:41:35;;;;;;;14.45;6.55;;;6.60;99.90;;;;;;5040090;28;20763;-77
2023/10/25 05:44:03;;;;;;;14.43;6.60;;;6.70;99.90;;;;;;5055624;28;20041;-77
2023/10/25 05:46:29;;;;;;;13.65;6.53;;;6.60;99.90;;;;;;5035301;28;20048;-77
2023/10/25 05:48:54;;;;;;;15.10;6.45;;;6.60;99.90;;;;;;5044850;28;20033;-77
2023/10/25 05:51:20;;;;;;;16.55;6.97;;;6.60;99.90;;;;;;5042967;28;20491;-77
2023/10/25 05:53:47;;;;;;;11.40;6.30;;;6.60;99.90;;;;;;5043686;28;20041;-76
2023/10/25 05:56:13;;;;;;;13.18;6.72;;;6.70;99.90;;;;;;5027289;28;20737;-77
2023/10/25 05:58:39;;;;;;;15.68;6.38;;;6.60;99.90;;;;;;5038240;28;20033;-78
2023/10/25 06:01:08;;;;;;;15.77;6.93;;;6.60;99.90;;;;;;5028410;28;20041;-78
2023/10/25 06:03:35;;;;;;;13.73;6.55;;;6.60;99.90;;;;;;5045050;28;20404;-78
2023/10/25 06:06:02;;;;;;;16.27;6.70;;;6.50;99.90;;;;;;5040082;28;20445;-78
2023/10/25 06:08:28;;;;;;;17.00;7.22;;;6.50;99.90;;;;;;5040213;28;20037;-78
2023/10/25 06:10:55;;;;;;;14.52;5.82;;;6.50;99.90;;;;;;5028909;28;20045;-78
2023/10/25 06:13:20;;;;;;;11.23;6.07;;;6.50;99.90;;;;;;5041948;28;20084;-79
2023/10/25 06:15:46;;;;;;;16.48;6.45;;;6.50;99.90;;;;;;5042343;28;20491;-78
2023/10/25 06:18:12;;;;;;;15.73;6.80;;;6.50;99.90;;;;;;5038767;28;20040;-78
2023/10/25 06:20:38;;;;;;;12.50;6.50;;;6.60;99.90;;;;;;5023019;28;20041;-79
2023/10/25 06:23:04;;;;;;;16.70;6.40;;;6.50;99.90;;;;;;5042944;28;20038;-79
2023/10/25 06:25:30;;;;;;;15.00;7.32;;;6.50;99.90;;;;;;5038982;28;20033;-78
2023/10/25 06:27:57;;;;;;;17.83;7.40;;;6.50;99.90;;;;;;5049051;28;20045;-78
2023/10/25 06:30:24;;;;;;;13.32;7.32;;;6.60;99.90;;;;;;5023573;28;20402;-79
2023/10/25 06:32:49;;;;;;;12.48;7.07;;;6.60;99.90;;;;;;5028289;28;20048;-78
2023/10/25 06:35:15;;;;;;;14.30;7.13;;;6.60;99.90;;;;;;5040065;28;20049;-79
2023/10/25 06:37:41;;;;;;;14.70;7.80;;;6.50;99.90;;;;;;5038603;28;20049;-78
2023/10/25 06:40:07;;;;;;;16.85;8.10;;;6.60;99.90;;;;;;5025974;28;20051;-78
2023/10/25 06:42:33;;;;;;;14.30;7.10;;;6.60;99.90;;;;;;5043028;28;20039;-78
2023/10/25 06:44:59;;;;;;;16.73;7.40;;;6.60;99.90;;;;;;5043798;28;20037;-78
2023/10/25 06:47:26;;;;;;;17.90;7.68;;;6.60;99.90;;;;;;5062973;28;20475;-78
2023/10/25 06:49:52;;;;;;;18.67;8.30;;;6.60;99.90;;;;;;5025834;28;20682;-78
2023/10/25 06:52:18;;;;;;;19.17;7.93;;;6.60;99.90;;;;;;5024833;28;20125;-78
2023/10/25 06:54:44;;;;;;;18.73;7.38;;;6.70;99.90;;;;;;5039158;28;20065;-77
2023/10/25 06:57:11;;;;;;;17.63;7.65;;;6.70;99.90;;;;;;5062991;28;20122;-78
2023/10/25 06:59:37;;;;;;;16.58;7.25;;;6.70;99.90;;;;;;5047608;28;20087;-79
2023/10/25 07:02:32;;;;;;;15.57;7.95;;;6.70;99.90;;;;;;5027181;28;20039;-79
2023/10/25 07:05:10;;;;;;;18.38;8.10;;;6.80;99.90;;;;;;5037704;28;20797;-78
2023/10/25 07:07:36;;;;;;;19.02;8.68;;;6.80;99.90;;;;;;5038743;28;20639;-79
2023/10/25 07:10:03;;;;;;;19.88;7.47;;;6.80;99.90;;;;;;5036777;28;20041;-78
2023/10/25 07:12:32;;;;;;;14.90;7.35;;;6.80;99.90;;;;;;5041915;28;20071;-79
2023/10/25 07:14:57;;;;;;;19.65;7.60;;;6.80;99.90;;;;;;5020789;28;20041;-78
2023/10/25 07:17:24;;;;;;;13.30;7.60;;;6.80;99.90;;;;;;5028455;28;20047;-78
2023/10/25 07:19:50;;;;;;;14.55;7.93;;;6.80;99.90;;;;;;5028128;28;20048;-78
2023/10/25 07:22:16;;;;;;;17.40;7.85;;;6.80;99.90;;;;;;5027186;28;20431;-78
2023/10/25 07:24:41;;;;;;;17.20;7.60;;;6.90;99.90;;;;;;5034302;28;20045;-79
2023/10/25 07:27:07;;;;;;;14.63;7.78;;;6.90;99.90;;;;;;5040913;28;20041;-78
2023/10/25 07:29:36;;;;;;;14.75;7.78;;;6.90;99.90;;;;;;5036274;28;20080;-79
2023/10/25 07:32:02;;;;;;;19.73;8.90;;;6.90;99.90;;;;;;5043277;28;20114;-77
2023/10/25 07:34:28;;;;;;;20.05;9.82;;;7.00;99.90;;;;;;5041582;28;20072;-78
2023/10/25 07:36:54;;;;;;;20.08;11.15;;;7.00;99.90;;;;;;5044221;28;20033;-78
2023/10/25 07:39:20;;;;;;;22.40;11.55;;;7.10;99.90;;;;;;5025731;28;20606;-78
2023/10/25 07:41:45;;;;;;;12.80;8.02;;;7.10;99.90;;;;;;5041843;28;20049;-78
2023/10/25 07:44:11;;;;;;;19.73;8.68;;;7.20;99.90;;;;;;5035807;28;20033;-78
2023/10/25 07:46:37;;;;;;;13.00;8.27;;;7.30;99.90;;;;;;5013549;28;20033;-78
2023/10/25 07:49:03;;;;;;;15.15;7.88;;;7.40;99.90;;;;;;5038421;28;20068;-78
2023/10/25 07:51:29;;;;;;;12.98;7.38;;;7.50;99.90;;;;;;5056359;28;20479;-78
2023/10/25 07:53:54;;;;;;;39.15;27.42;;;7.60;99.90;;;;;;5027683;28;20033;-78
2023/10/25 07:56:20;;;;;;;23.10;12.05;;;7.60;99.90;;;;;;5030601;28;20053;-78
2023/10/25 07:58:46;;;;;;;17.55;10.02;;;7.60;99.90;;;;;;5036104;28;20037;-80
2023/10/25 08:01:15;;;;;;;13.93;8.85;;;7.80;99.90;;;;;;5027094;28;20037;-80
2023/10/25 08:03:40;;;;;;;16.45;8.73;;;7.80;99.90;;;;;;5027216;28;20044;-79
2023/10/25 08:06:07;;;;;;;16.98;7.72;;;7.90;99.90;;;;;;5015279;28;20034;-79
2023/10/25 08:08:32;;;;;;;14.88;7.18;;;8.00;99.90;;;;;;5044554;28;20033;-79
2023/10/25 08:11:04;;;;;;;14.70;7.45;;;8.00;99.90;;;;;;5044246;28;20102;-79
2023/10/25 08:13:32;;;;;;;16.23;7.47;;;8.10;99.90;;;;;;5020249;28;20156;-80
2023/10/25 08:15:58;;;;;;;13.55;7.07;;;8.10;99.90;;;;;;5035743;28;20048;-79
2023/10/25 08:18:26;;;;;;;17.83;7.10;;;8.30;99.90;;;;;;5048601;28;20036;-79
2023/10/25 08:20:52;;;;;;;14.73;7.90;;;8.40;99.90;;;;;;5028229;28;20040;-79
2023/10/25 08:23:18;;;;;;;13.95;7.70;;;8.50;99.90;;;;;;5037255;28;20060;-79
2023/10/25 08:25:44;;;;;;;17.30;8.38;;;8.60;99.90;;;;;;5042378;28;20116;-78
2023/10/25 08:28:09;;;;;;;16.48;7.68;;;8.70;99.90;;;;;;5045439;28;20412;-78
2023/10/25 08:30:35;;;;;;;16.35;7.53;;;8.80;99.90;;;;;;5023677;28;20049;-78
2023/10/25 08:33:01;;;;;;;14.55;8.32;;;8.80;99.90;;;;;;5050193;28;20049;-78
2023/10/25 08:35:26;;;;;;;16.83;7.13;;;8.90;99.90;;;;;;5056359;28;20044;-77
2023/10/25 08:37:52;;;;;;;17.60;7.85;;;8.90;99.90;;;;;;5036160;28;20070;-76
2023/10/25 08:40:18;;;;;;;16.00;9.85;;;9.00;99.90;;;;;;5042159;28;20045;-79
2023/10/25 08:42:44;;;;;;;13.98;8.07;;;9.10;99.90;;;;;;5020764;28;20029;-79
2023/10/25 08:45:10;;;;;;;20.00;9.55;;;9.20;99.90;;;;;;5044607;28;20094;-77
2023/10/25 08:47:36;;;;;;;12.27;8.45;;;9.20;99.90;;;;;;5028943;28;20043;-77
2023/10/25 08:50:04;;;;;;;13.50;7.63;;;9.30;99.90;;;;;;5043747;28;20048;-78
2023/10/25 08:52:30;;;;;;;18.55;9.00;;;9.40;99.90;;;;;;5041951;28;20033;-78
2023/10/25 08:54:55;;;;;;;17.98;9.32;;;9.50;99.90;;;;;;5047891;28;20561;-78
2023/10/25 08:57:21;;;;;;;19.02;8.75;;;9.50;99.90;;;;;;5030358;28;20053;-77
2023/10/25 08:59:48;;;;;;;16.13;8.30;;;9.60;99.90;;;;;;5042910;28;20045;-77
2023/10/25 09:02:14;;;;;;;19.25;7.72;;;9.60;99.90;;;;;;5030848;28;20119;-77
2023/10/25 09:05:02;;;;;;;14.23;8.50;;;9.60;99.90;;;;;;5029751;28;20067;-77
2023/10/25 09:07:36;;;;;;;11.55;7.22;;;9.60;99.90;;;;;;5032772;28;20037;-77
2023/10/25 09:10:19;;;;;;;17.02;8.02;;;9.60;99.90;;;;;;5013065;28;20325;-77
2023/10/25 09:12:46;;;;;;;18.80;8.57;;;9.70;99.90;;;;;;5042144;28;20033;-78
2023/10/25 09:15:12;;;;;;;20.15;9.70;;;9.80;99.90;;;;;;5038094;28;20553;-77
2023/10/25 09:17:38;;;;;;;15.52;8.13;;;9.80;99.90;;;;;;5025801;28;20041;-79
2023/10/25 09:20:07;;;;;;;17.33;8.32;;;9.80;99.90;;;;;;5043903;28;20044;-81
2023/10/25 09:22:33;;;;;;;11.98;7.28;;;9.90;99.90;;;;;;5032917;28;20088;-81
2023/10/25 09:25:01;;;;;;;16.80;7.88;;;10.00;99.90;;;;;;5029053;28;20454;-81
2023/10/25 09:27:28;;;;;;;16.17;8.32;;;10.10;99.90;;;;;;5029290;28;20483;-82
2023/10/25 09:30:09;;;;;;;12.63;7.93;;;10.30;99.90;;;;;;5022764;28;20124;-81
2023/10/25 09:32:36;;;;;;;12.52;7.55;;;10.40;99.90;;;;;;5043897;28;21550;-81
2023/10/25 09:35:03;;;;;;;16.13;7.50;;;10.60;99.90;;;;;;5034357;28;20114;-82
2023/10/25 09:37:29;;;;;;;14.65;7.05;;;10.60;99.90;;;;;;5038433;28;20040;-82
2023/10/25 09:39:54;;;;;;;10.90;6.65;;;10.80;99.90;;;;;;5021240;28;20045;-82
2023/10/25 09:42:26;;;;;;;14.55;7.47;;;11.00;99.90;;;;;;5035782;28;20716;-82
2023/10/25 09:45:01;;;;;;;11.27;6.90;;;11.10;99.90;;;;;;5039776;28;20505;-81
2023/10/25 09:47:32;;;;;;;18.05;7.28;;;11.20;99.90;;;;;;5040526;28;20041;-82
2023/10/25 09:50:06;;;;;;;15.10;6.78;;;11.40;99.90;;;;;;5024155;28;20041;-82
2023/10/25 09:52:35;;;;;;;12.02;6.75;;;11.50;99.90;;;;;;5041917;28;20044;-82
2023/10/25 09:55:14;;;;;;;11.15;6.32;;;11.70;99.90;;;;;;5027302;28;20132;-82
2023/10/25 09:57:41;;;;;;;12.65;6.57;;;11.80;99.90;;;;;;5029143;28;20053;-81
2023/10/25 10:00:08;;;;;;;13.63;6.03;;;11.90;99.90;;;;;;5047554;28;20111;-82
2023/10/25 10:03:02;;;;;;;15.90;6.78;;;12.00;99.90;;;;;;5044215;28;20036;-82
2023/10/25 10:05:48;;;;;;;10.00;6.35;;;12.10;99.90;;;;;;5043205;28;20070;-81
2023/10/25 10:08:38;;;;;;;9.88;6.03;;;12.20;99.90;;;;;;5042481;28;20037;-82
2023/10/25 10:11:11;;;;;;;9.98;5.63;;;12.30;99.90;;;;;;5029279;28;20070;-81
2023/10/25 10:13:36;;;;;;;10.48;5.90;;;12.40;99.90;;;;;;5035644;28;22113;-81
2023/10/25 10:16:11;;;;;;;9.57;5.18;;;12.40;99.90;;;;;;5046534;28;20033;-82
2023/10/25 10:18:45;;;;;;;12.13;5.60;;;12.50;99.90;;;;;;5039794;28;20036;-82
2023/10/25 10:21:13;;;;;;;10.13;4.82;;;12.60;99.90;;;;;;5028256;28;20041;-82
2023/10/25 10:23:50;;;;;;;8.45;4.80;;;12.60;99.90;;;;;;5030175;28;20029;-81
2023/10/25 10:26:44;;;;;;;9.18;4.78;;;12.70;99.90;;;;;;5026903;28;20496;-81
2023/10/25 10:29:32;;;;;;;6.85;4.18;;;12.70;99.90;;;;;;5044781;28;20458;-81
2023/10/25 10:32:05;;;;;;;9.82;5.03;;;12.70;99.90;;;;;;5029176;28;20052;-81
2023/10/25 10:34:42;;;;;;;8.77;4.47;;;12.60;99.90;;;;;;5028113;28;20518;-81
2023/10/25 10:37:22;;;;;;;8.45;4.45;;;12.70;99.90;;;;;;5043421;28;20029;-81
2023/10/25 10:39:57;;;;;;;9.00;4.60;;;12.60;99.90;;;;;;5045994;28;20441;-81
2023/10/25 10:42:42;;;;;;;8.13;4.15;;;12.50;99.90;;;;;;5026669;28;20840;-81
2023/10/25 10:45:19;;;;;;;9.07;4.20;;;12.50;99.90;;;;;;5027838;28;20527;-81
2023/10/25 10:48:32;;;;;;;9.35;5.57;;;12.50;99.90;;;;;;5026896;28;20048;-81
2023/10/25 10:50:58;;;;;;;10.13;5.40;;;12.60;99.90;;;;;;5002508;28;20390;-82
2023/10/25 10:53:23;;;;;;;11.68;4.85;;;12.80;99.90;;;;;;5055009;28;20132;-82
2023/10/25 10:55:49;;;;;;;7.07;4.32;;;12.90;99.90;;;;;;5020739;28;20065;-82
2023/10/25 10:58:17;;;;;;;10.15;4.05;;;13.00;99.90;;;;;;5040229;28;20263;-82
2023/10/25 11:00:44;;;;;;;8.23;3.90;;;13.10;99.90;;;;;;5026832;28;20042;-82
2023/10/25 11:03:10;;;;;;;5.97;3.70;;;13.10;99.90;;;;;;5026696;28;20108;-82
2023/10/25 11:05:37;;;;;;;7.93;3.72;;;13.10;99.90;;;;;;5020151;28;20459;-82
2023/10/25 11:08:09;;;;;;;9.25;3.60;;;13.10;99.90;;;;;;5013749;28;20134;-82
2023/10/25 11:10:36;;;;;;;9.05;3.50;;;13.00;99.90;;;;;;5026899;28;20041;-82
2023/10/25 11:13:07;;;;;;;5.53;3.75;;;13.00;99.90;;;;;;5027088;28;20033;-82
2023/10/25 11:15:33;;;;;;;7.97;3.92;;;12.90;99.90;;;;;;5010099;28;20071;-82
2023/10/25 11:18:00;;;;;;;7.05;3.10;;;12.90;99.90;;;;;;5028652;28;20041;-81
2023/10/25 11:20:26;;;;;;;7.38;3.55;;;12.90;99.90;;;;;;5027312;28;20049;-82
2023/10/25 11:22:52;;;;;;;5.30;3.38;;;12.80;99.90;;;;;;5010603;28;20537;-82
2023/10/25 11:25:21;;;;;;;5.05;3.30;;;12.60;99.90;;;;;;5009957;28;20037;-81
2023/10/25 11:27:47;;;;;;;5.53;3.58;;;12.50;99.90;;;;;;5039769;28;20041;-81
2023/10/25 11:30:13;;;;;;;4.72;3.13;;;12.50;99.90;;;;;;5022283;28;20507;-81
2023/10/25 11:32:42;;;;;;;7.70;3.17;;;12.40;99.90;;;;;;5029019;28;20033;-82
2023/10/25 11:35:23;;;;;;;6.97;3.30;;;12.50;99.90;;;;;;5016271;28;20085;-82
2023/10/25 11:37:51;;;;;;;4.35;3.13;;;12.40;99.90;;;;;;5018113;28;20119;-81
2023/10/25 11:40:17;;;;;;;6.55;3.42;;;12.40;99.90;;;;;;5045539;28;20517;-82
2023/10/25 11:42:43;;;;;;;9.93;3.83;;;12.40;99.90;;;;;;5029051;28;20071;-85
2023/10/25 11:45:09;;;;;;;4.40;3.33;;;12.40;99.90;;;;;;5042692;28;20028;-82
2023/10/25 11:47:38;;;;;;;4.75;3.30;;;12.40;99.90;;;;;;5031327;28;20372;-82
2023/10/25 11:50:04;;;;;;;5.32;2.60;;;12.50;99.90;;;;;;5024447;28;20102;-82
2023/10/25 11:52:31;;;;;;;7.13;3.47;;;12.30;99.90;;;;;;5039364;28;20052;-81
2023/10/25 11:54:59;;;;;;;6.03;3.35;;;12.30;99.90;;;;;;5036724;28;20537;-82
2023/10/25 11:57:27;;;;;;;8.00;4.03;;;12.20;99.90;;;;;;5017323;28;20057;-81
2023/10/25 11:59:52;;;;;;;7.43;3.92;;;12.20;99.90;;;;;;5053843;28;20082;-82
2023/10/25 12:02:20;;;;;;;4.70;3.00;;;12.20;99.90;;;;;;5045062;28;20037;-82
2023/10/25 12:04:47;;;;;;;7.43;3.22;;;12.20;99.90;;;;;;5050339;28;20068;-83
2023/10/25 12:07:12;;;;;;;5.13;3.25;;;12.20;99.90;;;;;;5045212;28;20483;-82
2023/10/25 12:09:39;;;;;;;7.20;2.88;;;12.10;99.90;;;;;;5031139;28;20091;-84
2023/10/25 12:12:05;;;;;;;7.03;2.97;;;12.20;99.90;;;;;;5045412;28;20099;-82
2023/10/25 12:14:31;;;;;;;6.72;3.20;;;12.10;99.90;;;;;;5049531;28;20037;-82
2023/10/25 12:16:58;;;;;;;6.43;3.30;;;12.10;99.90;;;;;;5043891;28;20040;-81
2023/10/25 12:19:24;;;;;;;7.07;3.20;;;12.10;99.90;;;;;;5038606;28;20440;-82
2023/10/25 12:21:55;;;;;;;5.13;3.25;;;12.00;99.90;;;;;;5029618;28;20037;-82
2023/10/25 12:24:22;;;;;;;8.73;3.25;;;12.00;99.90;;;;;;5020694;28;20055;-81
2023/10/25 12:26:48;;;;;;;8.02;3.20;;;12.00;99.90;;;;;;5043995;28;20043;-82
2023/10/25 12:29:14;;;;;;;7.68;2.85;;;11.90;99.90;;;;;;5042147;28;20029;-82
2023/10/25 12:31:39;;;;;;;9.93;3.35;;;11.90;99.90;;;;;;5023615;28;21463;-82
2023/10/25 12:34:05;;;;;;;6.45;3.35;;;11.80;99.90;;;;;;5033577;28;20040;-82
2023/10/25 12:36:31;;;;;;;5.68;3.03;;;11.80;99.90;;;;;;5043009;28;20435;-82
2023/10/25 12:38:56;;;;;;;5.28;3.08;;;11.80;99.90;;;;;;5042785;28;20037;-83
2023/10/25 12:41:23;;;;;;;6.55;3.05;;;11.60;99.90;;;;;;5034906;28;20503;-85
2023/10/25 12:43:49;;;;;;;5.15;3.53;;;11.60;99.90;;;;;;5038089;28;20465;-83
2023/10/25 12:46:15;;;;;;;5.15;3.03;;;11.60;99.90;;;;;;5012696;28;20041;-82
2023/10/25 12:48:40;;;;;;;5.75;3.53;;;11.50;99.90;;;;;;5060972;28;20036;-82